createdAt,value
2023-03-30T00:02:10.512Z,100424.69
2023-03-30T00:04:43.111Z,100426.59
2023-03-30T00:07:12.663Z,100432.81
2023-03-30T00:09:43.484Z,100427.78
2023-03-30T00:12:15.614Z,100435.53
2023-03-30T00:14:44.853Z,100428.84
2023-03-30T00:17:15.284Z,100432.28
2023-03-30T00:19:44.353Z,100435.03
2023-03-30T00:22:13.441Z,100429.28
2023-03-30T00:24:42.244Z,100422.47
2023-03-30T00:27:11.275Z,100420.63
2023-03-30T00:29:40.599Z,100412.69
2023-03-30T00:32:09.785Z,100407.53
2023-03-30T00:34:40.156Z,100408.25
2023-03-30T00:37:09.377Z,100397.81
2023-03-30T00:45:14.428Z,100393.44
2023-03-30T00:47:49.936Z,100395.84
2023-03-30T00:50:25.013Z,100399.94
2023-03-30T00:52:58.977Z,100386.88
2023-03-30T00:55:33.264Z,100385.03
2023-03-30T00:58:02.863Z,100378.81
2023-03-30T01:00:33.172Z,100385.94
2023-03-30T01:03:11.705Z,100384.09
2023-03-30T01:05:44.885Z,100375.28
2023-03-30T01:08:16.605Z,100376.13
2023-03-30T01:10:46.516Z,100366.53
2023-03-30T01:13:16.977Z,100368.31
2023-03-30T01:16:10.460Z,100364.69
2023-03-30T01:18:54.817Z,100356.03
2023-03-30T01:22:05.627Z,100356.16
2023-03-30T01:25:20.582Z,100364.84
2023-03-30T01:28:17.968Z,100358.56
2023-03-30T01:31:25.704Z,100356.25
2023-03-30T01:34:59.154Z,100358.56
2023-03-30T01:38:21.443Z,100355.13
2023-03-30T01:41:07.924Z,100359.34
2023-03-30T01:43:45.009Z,100350.69
2023-03-30T01:46:25.358Z,100345.91
2023-03-30T01:49:10.782Z,100352.81
2023-03-30T01:51:49.579Z,100348.63
2023-03-30T01:54:26.650Z,100347.00
2023-03-30T01:57:06.462Z,100343.06
2023-03-30T01:59:42.628Z,100336.00
2023-03-30T02:02:15.008Z,100336.50
2023-03-30T02:04:46.390Z,100345.69
2023-03-30T02:07:22.539Z,100342.31
2023-03-30T02:09:55.110Z,100338.03
2023-03-30T02:12:30.504Z,100331.03
2023-03-30T02:15:04.755Z,100338.13
2023-03-30T02:17:35.794Z,100339.63
2023-03-30T02:20:08.994Z,100330.75
2023-03-30T02:22:39.542Z,100342.09
2023-03-30T02:25:09.477Z,100331.66
2023-03-30T02:27:42.322Z,100332.44
2023-03-30T02:30:12.393Z,100331.38
2023-03-30T02:32:48.282Z,100331.13
2023-03-30T02:35:51.879Z,100328.91
2023-03-30T02:38:52.806Z,100324.47
2023-03-30T02:41:48.844Z,100311.28
2023-03-30T02:44:33.721Z,100321.72
2023-03-30T02:47:13.497Z,100314.50
2023-03-30T02:49:58.725Z,100312.13
2023-03-30T02:52:49.990Z,100314.78
2023-03-30T02:55:24.559Z,100311.41
2023-03-30T02:58:29.738Z,100299.97
2023-03-30T03:01:24.369Z,100310.41
2023-03-30T03:04:03.508Z,100297.22
2023-03-30T03:06:42.497Z,100302.38
2023-03-30T03:09:11.460Z,100289.47
2023-03-30T03:11:40.786Z,100300.53
2023-03-30T03:14:09.607Z,100296.38
2023-03-30T03:16:40.088Z,100296.25
2023-03-30T03:19:16.069Z,100300.78
2023-03-30T03:21:46.669Z,100297.16
2023-03-30T03:24:17.482Z,100287.72
2023-03-30T03:27:05.508Z,100285.56
2023-03-30T03:29:44.898Z,100285.81
2023-03-30T03:32:15.528Z,100279.97
2023-03-30T03:34:48.480Z,100284.03
2023-03-30T03:41:50.964Z,100271.94
2023-03-30T03:44:19.940Z,100268.97
2023-03-30T03:46:49.142Z,100272.28
2023-03-30T03:49:19.379Z,100269.66
2023-03-30T03:51:48.375Z,100269.66
2023-03-30T03:54:17.233Z,100254.72
2023-03-30T03:56:49.421Z,100262.38
2023-03-30T03:59:18.196Z,100263.44
2023-03-30T04:01:50.143Z,100253.94
2023-03-30T04:04:20.401Z,100252.16
2023-03-30T04:06:49.730Z,100263.38
2023-03-30T04:09:19.320Z,100260.66
2023-03-30T04:12:07.422Z,100252.50
2023-03-30T04:15:06.129Z,100251.56
2023-03-30T04:17:57.880Z,100259.16
2023-03-30T04:20:43.945Z,100259.22
2023-03-30T04:23:33.805Z,100249.34
2023-03-30T04:26:35.542Z,100250.78
2023-03-30T04:29:06.609Z,100249.97
2023-03-30T04:32:20.637Z,100242.53
2023-03-30T04:35:05.693Z,100245.97
2023-03-30T04:38:06.226Z,100241.75
2023-03-30T04:40:46.918Z,100229.75
2023-03-30T04:43:27.258Z,100226.25
2023-03-30T04:46:28.706Z,100230.53
2023-03-30T04:49:35.794Z,100221.47
2023-03-30T04:52:27.937Z,100219.31
2023-03-30T04:55:16.470Z,100227.53
2023-03-30T04:58:03.931Z,100220.22
2023-03-30T05:00:44.574Z,100218.00
2023-03-30T05:03:31.571Z,100216.97
2023-03-30T05:06:09.824Z,100213.88
2023-03-30T05:08:58.459Z,100212.38
2023-03-30T05:11:51.518Z,100216.09
2023-03-30T05:14:43.881Z,100214.09
2023-03-30T05:17:34.793Z,100208.66
2023-03-30T05:20:25.699Z,100206.97
2023-03-30T05:23:06.862Z,100209.03
2023-03-30T05:25:55.597Z,100200.78
2023-03-30T05:28:44.388Z,100211.56
2023-03-30T05:31:36.849Z,100207.38
2023-03-30T05:34:36.506Z,100207.81
2023-03-30T05:37:16.399Z,100209.63
2023-03-30T05:40:09.541Z,100204.00
2023-03-30T05:42:46.249Z,100214.09
2023-03-30T05:45:33.498Z,100209.47
2023-03-30T05:48:26.060Z,100209.63
2023-03-30T05:51:20.913Z,100209.25
2023-03-30T05:54:18.073Z,100206.91
2023-03-30T05:57:04.214Z,100200.47
2023-03-30T05:59:42.082Z,100204.00
2023-03-30T06:02:29.934Z,100201.91
2023-03-30T06:05:06.156Z,100201.31
2023-03-30T06:07:35.129Z,100200.06
2023-03-30T06:10:04.682Z,100204.63
2023-03-30T06:12:33.636Z,100207.38
2023-03-30T06:15:03.522Z,100198.97
2023-03-30T06:17:43.173Z,100194.75
2023-03-30T06:20:13.734Z,100186.97
2023-03-30T06:22:46.449Z,100181.38
2023-03-30T06:25:21.186Z,100188.63
2023-03-30T06:27:50.134Z,100199.06
2023-03-30T06:30:19.978Z,100189.09
2023-03-30T06:32:54.642Z,100186.22
2023-03-30T06:35:27.534Z,100188.38
2023-03-30T06:42:29.604Z,100185.31
2023-03-30T06:45:13.189Z,100180.91
2023-03-30T06:47:42.510Z,100182.81
2023-03-30T06:50:14.566Z,100185.13
2023-03-30T06:52:46.297Z,100181.19
2023-03-30T06:55:17.021Z,100174.56
2023-03-30T06:57:45.777Z,100182.22
2023-03-30T07:00:16.395Z,100178.38
2023-03-30T07:03:04.203Z,100179.22
2023-03-30T07:05:42.673Z,100185.97
2023-03-30T07:08:38.089Z,100185.38
2023-03-30T07:11:08.489Z,100183.19
2023-03-30T07:13:40.808Z,100174.63
2023-03-30T07:16:11.292Z,100171.09
2023-03-30T07:18:40.247Z,100180.16
2023-03-30T07:21:10.854Z,100176.63
2023-03-30T07:23:43.404Z,100173.06
2023-03-30T07:26:18.118Z,100173.13
2023-03-30T07:29:00.784Z,100159.94
2023-03-30T07:31:32.150Z,100171.34
2023-03-30T07:34:04.339Z,100172.31
2023-03-30T07:36:40.220Z,100167.53
2023-03-30T07:39:09.216Z,100167.72
2023-03-30T07:41:41.344Z,100172.91
2023-03-30T07:44:10.363Z,100168.59
2023-03-30T07:46:39.564Z,100173.97
2023-03-30T07:49:10.744Z,100179.78
2023-03-30T07:51:43.138Z,100170.56
2023-03-30T07:54:21.931Z,100166.19
2023-03-30T07:57:18.344Z,100159.66
2023-03-30T07:59:47.324Z,100161.38
2023-03-30T08:02:35.608Z,100153.78
2023-03-30T08:05:05.315Z,100158.25
2023-03-30T08:08:01.211Z,100157.19
2023-03-30T08:10:34.848Z,100153.44
2023-03-30T08:17:37.881Z,100142.91
2023-03-30T08:20:10.906Z,100148.53
2023-03-30T08:22:40.066Z,100150.44
2023-03-30T08:25:11.925Z,100142.28
2023-03-30T08:27:40.974Z,100140.31
2023-03-30T08:30:13.183Z,100140.84
2023-03-30T08:32:42.352Z,100137.19
2023-03-30T08:35:11.644Z,100120.19
2023-03-30T08:37:41.038Z,100127.88
2023-03-30T08:40:13.314Z,100124.53
2023-03-30T08:43:04.791Z,100126.66
2023-03-30T08:45:41.014Z,100124.88
2023-03-30T08:48:19.853Z,100114.56
2023-03-30T08:50:57.781Z,100108.38
2023-03-30T08:53:29.616Z,100105.56
2023-03-30T08:56:10.538Z,100100.84
2023-03-30T08:58:53.954Z,100100.63
2023-03-30T09:01:30.261Z,100094.75
2023-03-30T09:04:24.762Z,100086.25
2023-03-30T09:06:57.424Z,100081.72
2023-03-30T09:09:31.166Z,100080.13
2023-03-30T09:12:07.770Z,100078.06
2023-03-30T09:14:42.869Z,100078.38
2023-03-30T09:17:21.224Z,100077.03
2023-03-30T09:19:57.281Z,100063.78
2023-03-30T09:22:35.874Z,100065.75
2023-03-30T09:25:13.218Z,100073.28
2023-03-30T09:27:58.755Z,100064.78
2023-03-30T09:30:38.671Z,100068.00
2023-03-30T09:33:22.077Z,100061.63
2023-03-30T09:36:09.226Z,100069.81
2023-03-30T09:38:41.830Z,100066.91
2023-03-30T09:41:33.016Z,100057.69
2023-03-30T09:44:04.301Z,100064.50
2023-03-30T09:46:40.544Z,100056.97
2023-03-30T09:49:18.166Z,100046.28
2023-03-30T09:52:06.673Z,100042.59
2023-03-30T09:54:40.081Z,100045.06
2023-03-30T09:57:27.212Z,100040.06
2023-03-30T09:59:59.851Z,100031.41
2023-03-30T10:02:31.584Z,100025.31
2023-03-30T10:05:04.796Z,100016.69
2023-03-30T10:12:06.520Z,100005.31
2023-03-30T10:14:37.143Z,100006.13
2023-03-30T10:17:09.088Z,99994.47
2023-03-30T10:19:48.109Z,99990.38
2023-03-30T10:22:23.348Z,99981.34
2023-03-30T10:24:55.246Z,99990.09
2023-03-30T10:27:34.641Z,99991.75
2023-03-30T10:30:12.894Z,99987.66
2023-03-30T10:32:47.286Z,99997.31
2023-03-30T10:35:22.788Z,99988.63
2023-03-30T10:37:55.852Z,99985.00
2023-03-30T10:40:32.676Z,99975.91
2023-03-30T10:43:04.328Z,99979.72
2023-03-30T10:45:41.773Z,99983.69
2023-03-30T10:48:43.295Z,99974.81
2023-03-30T10:51:23.223Z,99976.50
2023-03-30T10:54:04.433Z,99965.81
2023-03-30T10:56:43.917Z,99965.38
2023-03-30T10:59:44.818Z,99958.63
2023-03-30T11:02:48.876Z,99948.88
2023-03-30T11:05:25.942Z,99942.16
2023-03-30T11:08:01.939Z,99935.47
2023-03-30T11:10:34.621Z,99943.78
2023-03-30T11:13:08.349Z,99944.94
2023-03-30T11:15:44.416Z,99949.75
2023-03-30T11:18:21.422Z,99934.16
2023-03-30T11:21:01.509Z,99931.91
2023-03-30T11:23:45.846Z,99935.34
2023-03-30T11:26:24.074Z,99915.47
2023-03-30T11:29:24.253Z,99905.75
2023-03-30T11:32:12.449Z,99897.53
2023-03-30T11:34:56.173Z,99895.31
2023-03-30T11:37:33.890Z,99888.63
2023-03-30T11:40:17.365Z,99864.50
2023-03-30T11:42:48.573Z,99870.69
2023-03-30T11:45:34.479Z,99870.31
2023-03-30T11:48:42.839Z,99869.38
2023-03-30T11:51:29.622Z,99860.75
2023-03-30T11:54:39.680Z,99854.94
2023-03-30T11:57:18.986Z,99860.16
2023-03-30T12:00:08.274Z,99850.78
2023-03-30T12:02:51.282Z,99847.19
2023-03-30T12:05:31.401Z,99842.16
2023-03-30T12:08:30.125Z,99841.84
2023-03-30T12:11:13.675Z,99840.03
2023-03-30T12:13:51.263Z,99835.41
2023-03-30T12:16:31.894Z,99831.09
2023-03-30T12:19:14.825Z,99829.41
2023-03-30T12:21:56.193Z,99823.06
2023-03-30T12:24:34.711Z,99820.09
2023-03-30T12:27:07.055Z,99813.47
2023-03-30T12:30:02.305Z,99818.09
2023-03-30T12:32:35.932Z,99817.53
2023-03-30T12:35:51.908Z,99804.22
2023-03-30T12:38:25.563Z,99795.97
2023-03-30T12:41:15.404Z,99803.00
2023-03-30T12:44:18.934Z,99795.50
2023-03-30T12:47:06.877Z,99793.06
2023-03-30T12:49:59.299Z,99801.59
2023-03-30T12:52:43.619Z,99798.56
2023-03-30T13:00:31.714Z,99783.94
2023-03-30T13:03:38.420Z,99797.00
2023-03-30T13:06:24.945Z,99787.25
2023-03-30T13:09:05.198Z,99781.75
2023-03-30T13:11:46.688Z,99788.81
2023-03-30T13:14:27.418Z,99789.63
2023-03-30T13:17:17.231Z,99788.41
2023-03-30T13:20:12.692Z,99780.19
2023-03-30T13:23:28.202Z,99780.19
2023-03-30T13:26:34.297Z,99773.06
2023-03-30T13:29:11.471Z,99760.66
2023-03-30T13:32:19.495Z,99773.19
2023-03-30T13:35:17.666Z,99772.72
2023-03-30T13:38:17.082Z,99769.25
2023-03-30T13:41:04.529Z,99759.75
2023-03-30T13:43:57.526Z,99765.84
2023-03-30T13:46:36.859Z,99755.09
2023-03-30T13:49:32.333Z,99750.84
2023-03-30T13:52:07.527Z,99753.66
2023-03-30T13:54:40.994Z,99749.06
2023-03-30T13:57:14.098Z,99743.22
2023-03-30T13:59:48.216Z,99736.56
2023-03-30T14:02:20.957Z,99734.81
2023-03-30T14:04:51.423Z,99735.91
2023-03-30T14:07:24.227Z,99718.38
2023-03-30T14:10:08.574Z,99720.31
2023-03-30T14:12:41.249Z,99707.50
2023-03-30T14:15:24.618Z,99721.53
2023-03-30T14:17:58.142Z,99713.56
2023-03-30T14:20:47.519Z,99705.66
2023-03-30T14:27:48.334Z,99704.56
2023-03-30T14:30:29.566Z,99701.38
2023-03-30T14:37:32.895Z,99696.97
2023-03-30T14:44:38.859Z,99688.34
2023-03-30T14:51:42.316Z,99691.69
2023-03-30T14:54:18.893Z,99688.41
2023-03-30T14:56:57.705Z,99687.56
2023-03-30T14:59:28.425Z,99681.16
2023-03-30T15:01:58.530Z,99682.44
2023-03-30T15:04:35.654Z,99692.97
2023-03-30T15:07:05.620Z,99679.34
2023-03-30T15:09:40.144Z,99688.09
2023-03-30T15:12:16.840Z,99682.19
2023-03-30T15:14:48.869Z,99676.31
2023-03-30T15:17:23.929Z,99677.13
2023-03-30T15:19:55.422Z,99676.94
2023-03-30T15:22:30.046Z,99673.75
2023-03-30T15:29:32.690Z,99668.38
2023-03-30T15:32:08.167Z,99664.03
2023-03-30T15:34:37.437Z,99651.03
2023-03-30T15:41:48.444Z,99632.72
2023-03-30T15:44:20.671Z,99625.78
2023-03-30T15:51:30.617Z,99600.34
2023-03-30T15:54:04.410Z,99607.28
2023-03-30T15:56:39.957Z,99610.03
2023-03-30T15:59:16.600Z,99604.50
2023-03-30T16:01:52.528Z,99599.13
2023-03-30T16:04:25.026Z,99590.72
2023-03-30T16:06:56.255Z,99586.06
2023-03-30T16:09:25.258Z,99589.84
2023-03-30T16:11:54.345Z,99589.84
2023-03-30T16:14:23.108Z,99584.34
2023-03-30T16:16:52.156Z,99570.22
2023-03-30T16:19:21.007Z,99574.94
2023-03-30T16:21:53.213Z,99573.28
2023-03-30T16:24:23.518Z,99570.41
2023-03-30T16:26:52.522Z,99573.84
2023-03-30T16:29:24.506Z,99567.63
2023-03-30T16:31:54.468Z,99573.72
2023-03-30T16:34:23.379Z,99576.34
2023-03-30T16:36:53.705Z,99575.97
2023-03-30T16:39:26.520Z,99567.63
2023-03-30T16:41:57.207Z,99555.03
2023-03-30T16:44:26.896Z,99559.13
2023-03-30T16:46:55.911Z,99550.44
2023-03-30T16:49:27.145Z,99541.97
2023-03-30T16:51:58.236Z,99543.91
2023-03-30T16:54:32.446Z,99546.94
2023-03-30T16:57:02.751Z,99551.22
2023-03-30T16:59:34.154Z,99546.13
2023-03-30T17:02:03.496Z,99548.59
2023-03-30T17:04:32.206Z,99538.06
2023-03-30T17:07:01.418Z,99529.44
2023-03-30T17:09:31.561Z,99533.84
2023-03-30T17:12:00.675Z,99529.56
2023-03-30T17:14:30.221Z,99518.47
2023-03-30T17:16:59.418Z,99515.34
2023-03-30T17:24:00.582Z,99498.59
2023-03-30T17:26:30.873Z,99495.66
2023-03-30T17:28:59.951Z,99501.19
2023-03-30T17:31:28.771Z,99507.69
2023-03-30T17:33:57.886Z,99515.94
2023-03-30T17:36:29.267Z,99519.41
2023-03-30T17:38:59.834Z,99512.53
2023-03-30T17:41:30.076Z,99520.63
2023-03-30T17:43:59.071Z,99520.38
2023-03-30T17:46:28.272Z,99523.47
2023-03-30T17:48:58.794Z,99510.78
2023-03-30T17:51:27.643Z,99515.50
2023-03-30T17:53:56.644Z,99521.03
2023-03-30T17:56:25.838Z,99516.28
2023-03-30T17:58:56.271Z,99517.97
2023-03-30T18:01:25.093Z,99521.72
2023-03-30T18:03:54.190Z,99519.94
2023-03-30T18:06:22.992Z,99520.50
2023-03-30T18:08:52.115Z,99514.09
2023-03-30T18:11:21.068Z,99502.31
2023-03-30T18:13:51.904Z,99498.09
2023-03-30T18:16:24.443Z,99498.47
2023-03-30T18:18:53.504Z,99485.84
2023-03-30T18:21:22.235Z,99475.84
2023-03-30T18:23:51.290Z,99487.16
2023-03-30T18:26:19.997Z,99484.63
2023-03-30T18:28:48.997Z,99479.75
2023-03-30T18:31:17.857Z,99481.09
2023-03-30T18:33:49.431Z,99475.97
2023-03-30T18:36:21.255Z,99476.66
2023-03-30T18:38:50.391Z,99480.13
2023-03-30T18:41:19.146Z,99477.69
2023-03-30T18:48:22.486Z,99490.34
2023-03-30T18:50:54.386Z,99475.56
2023-03-30T18:53:25.747Z,99467.66
2023-03-30T18:55:58.629Z,99457.13
2023-03-30T19:02:59.246Z,99464.31
2023-03-30T19:05:30.696Z,99464.19
2023-03-30T19:08:01.358Z,99460.81
2023-03-30T19:10:34.464Z,99450.59
2023-03-30T19:13:03.552Z,99456.41
2023-03-30T19:15:34.757Z,99460.78
2023-03-30T19:18:05.633Z,99462.72
2023-03-30T19:20:37.860Z,99453.72
2023-03-30T19:23:09.298Z,99455.41
2023-03-30T19:25:38.230Z,99454.00
2023-03-30T19:28:08.400Z,99450.72
2023-03-30T19:30:40.072Z,99448.69
2023-03-30T19:33:13.212Z,99447.06
2023-03-30T19:35:43.359Z,99451.50
2023-03-30T19:38:14.005Z,99451.25
2023-03-30T19:40:43.471Z,99445.63
2023-03-30T19:43:12.609Z,99451.34
2023-03-30T19:45:41.351Z,99444.56
2023-03-30T19:48:10.826Z,99441.03
2023-03-30T19:50:40.749Z,99439.13
2023-03-30T19:53:10.412Z,99435.84
2023-03-30T19:55:40.668Z,99428.66
2023-03-30T19:58:12.693Z,99423.28
2023-03-30T20:00:43.560Z,99422.47
2023-03-30T20:03:14.661Z,99417.25
2023-03-30T20:05:50.939Z,99412.69
2023-03-30T20:08:24.171Z,99418.47
2023-03-30T20:10:56.551Z,99415.59
2023-03-30T20:13:27.381Z,99412.25
2023-03-30T20:15:57.073Z,99414.16
2023-03-30T20:18:26.325Z,99411.50
2023-03-30T20:20:55.070Z,99408.72
2023-03-30T20:23:24.236Z,99403.44
2023-03-30T20:25:56.823Z,99403.44
2023-03-30T20:28:25.899Z,99398.34
2023-03-30T20:30:57.083Z,99400.97
2023-03-30T20:33:28.105Z,99405.38
2023-03-30T20:35:58.372Z,99399.03
2023-03-30T20:38:27.559Z,99390.59
2023-03-30T20:40:59.344Z,99389.03
2023-03-30T20:43:28.403Z,99398.19
2023-03-30T20:46:02.666Z,99393.53
2023-03-30T20:48:33.543Z,99387.56
2023-03-30T20:51:03.928Z,99385.03
2023-03-30T20:53:34.889Z,99384.09
2023-03-30T20:56:09.357Z,99378.13
2023-03-30T20:58:39.666Z,99370.25
2023-03-30T21:01:19.219Z,99368.78
2023-03-30T21:03:50.134Z,99377.25
2023-03-30T21:06:23.642Z,99369.22
2023-03-30T21:08:54.509Z,99372.81
2023-03-30T21:11:27.266Z,99377.69
2023-03-30T21:13:56.922Z,99370.06
2023-03-30T21:16:26.957Z,99354.69
2023-03-30T21:18:56.362Z,99362.44
2023-03-30T21:21:25.900Z,99363.84
2023-03-30T21:23:54.969Z,99363.41
2023-03-30T21:26:26.455Z,99352.56
2023-03-30T21:28:55.708Z,99359.75
2023-03-30T21:31:25.580Z,99349.47
2023-03-30T21:33:54.905Z,99353.66
2023-03-30T21:36:24.263Z,99354.09
2023-03-30T21:38:53.322Z,99357.31
2023-03-30T21:41:24.511Z,99347.63
2023-03-30T21:43:55.787Z,99340.31
2023-03-30T21:46:27.269Z,99336.59
2023-03-30T21:48:56.801Z,99331.91
2023-03-30T21:51:28.965Z,99324.41
2023-03-30T21:54:00.115Z,99319.47
2023-03-30T21:56:31.988Z,99320.59
2023-03-30T21:59:02.643Z,99311.50
2023-03-30T22:01:31.479Z,99309.56
2023-03-30T22:04:01.692Z,99310.25
2023-03-30T22:06:32.905Z,99313.59
2023-03-30T22:09:02.086Z,99309.44
2023-03-30T22:11:31.388Z,99300.19
2023-03-30T22:14:02.194Z,99306.00
2023-03-30T22:21:07.968Z,99288.56
2023-03-30T22:23:36.955Z,99299.94
2023-03-30T22:26:06.805Z,99299.06
2023-03-30T22:28:35.906Z,99302.44
2023-03-30T22:31:08.936Z,99292.59
2023-03-30T22:33:37.761Z,99294.97
2023-03-30T22:36:17.359Z,99292.91
2023-03-30T22:38:46.504Z,99287.78
2023-03-30T22:41:15.712Z,99288.59
2023-03-30T22:43:44.463Z,99293.84
2023-03-30T22:46:14.930Z,99291.91
2023-03-30T22:48:44.012Z,99290.28
2023-03-30T22:51:14.601Z,99289.16
2023-03-30T22:53:43.366Z,99279.19
2023-03-30T22:56:12.994Z,99281.81
2023-03-30T22:58:41.789Z,99273.94
2023-03-30T23:01:12.322Z,99284.47
2023-03-30T23:03:43.051Z,99272.16
2023-03-30T23:06:12.127Z,99276.44
2023-03-30T23:08:40.877Z,99274.22
2023-03-30T23:11:09.865Z,99268.97
2023-03-30T23:13:42.086Z,99270.31
2023-03-30T23:16:11.569Z,99280.69
2023-03-30T23:18:42.295Z,99267.59
2023-03-30T23:21:14.130Z,99274.78
2023-03-30T23:23:43.395Z,99281.13
2023-03-30T23:26:13.168Z,99278.94
2023-03-30T23:28:43.529Z,99284.47
2023-03-30T23:31:14.692Z,99289.34
2023-03-30T23:33:45.591Z,99286.97
2023-03-30T23:36:17.308Z,99300.81
2023-03-30T23:38:47.517Z,99282.94
2023-03-30T23:41:18.844Z,99295.53
2023-03-30T23:43:48.218Z,99291.13
2023-03-30T23:46:17.824Z,99288.91
2023-03-30T23:48:47.982Z,99300.13
2023-03-30T23:51:17.067Z,99293.06
2023-03-30T23:53:47.309Z,99297.91
2023-03-30T23:56:17.204Z,99292.78
2023-03-30T23:58:46.397Z,99293.16
